Inicio METAR Ruta Wind Satelite

Informe Meteorológico

Fecha: 2020/11/30 15:57:43 Local
2020.11.30 20:57 UTC


Estado: VENCIDO
Operación:
Medellin / Olaya Herrera, Colombia (SKMD) 06-13N 075-36W 1499M
Nov 11, 2020 - 06:00 AM EST / 2020.11.11 1100 UTC
Wind: from the WSW (240 degrees) at 5 MPH (4 KT):0
Visibility: greater than 7 mile(s):0
Sky conditions: mostly cloudy
Weather: showers in the vicinity
Temperature: 64 F (18 C)
Dew Point: 64 F (18 C)
Relative Humidity: 100%
Pressure (altimeter): 30.18 in. Hg (1022 hPa)
ob: SKMD 111100Z VRB02KT 9999 6000S VCSH SCT017 BKN090 18/18 A3018 METAR SKMR 111100Z 24004KT 7000 VCFG BKN012 SCT070 24/24 A2989
cycle: 11